sensor_id;sensor_type;location;lat;lon;timestamp;noise_LAeq;noise_LA_min;noise_LA_max;noise_LA01;noise_LA95
68279;Laerm;55108;51.790;10.960;2023-02-28T00:01:00;28.75;26.10;37.35;;
68279;Laerm;55108;51.790;10.960;2023-02-28T00:03:25;28.61;25.95;34.59;;
68279;Laerm;55108;51.790;10.960;2023-02-28T00:05:51;35.10;26.03;57.76;;
68279;Laerm;55108;51.790;10.960;2023-02-28T00:08:16;35.61;26.83;55.27;;
68279;Laerm;55108;51.790;10.960;2023-02-28T00:10:41;32.57;26.18;55.27;;
68279;Laerm;55108;51.790;10.960;2023-02-28T00:13:06;33.50;25.94;47.65;;
68279;Laerm;55108;51.790;10.960;2023-02-28T00:15:32;58.55;26.30;77.89;;
68279;Laerm;55108;51.790;10.960;2023-02-28T00:17:57;29.67;26.05;37.96;;
68279;Laerm;55108;51.790;10.960;2023-02-28T00:20:23;35.72;26.17;67.46;;
68279;Laerm;55108;51.790;10.960;2023-02-28T00:22:49;28.94;26.17;37.85;;
68279;Laerm;55108;51.790;10.960;2023-02-28T00:25:16;28.48;26.35;32.76;;
68279;Laerm;55108;51.790;10.960;2023-02-28T00:27:41;29.44;26.69;33.58;;
68279;Laerm;55108;51.790;10.960;2023-02-28T00:30:08;31.67;26.54;43.56;;
68279;Laerm;55108;51.790;10.960;2023-02-28T00:32:33;28.07;26.21;32.20;;
68279;Laerm;55108;51.790;10.960;2023-02-28T00:34:59;54.71;25.64;72.26;;
68279;Laerm;55108;51.790;10.960;2023-02-28T00:37:24;27.59;25.99;31.79;;
68279;Laerm;55108;51.790;10.960;2023-02-28T00:39:49;29.09;26.50;37.22;;
68279;Laerm;55108;51.790;10.960;2023-02-28T00:42:14;27.30;25.97;29.89;;
68279;Laerm;55108;51.790;10.960;2023-02-28T00:44:40;57.34;25.69;76.08;;
68279;Laerm;55108;51.790;10.960;2023-02-28T00:47:05;28.05;25.57;36.70;;
68279;Laerm;55108;51.790;10.960;2023-02-28T00:49:30;27.34;25.67;31.78;;
68279;Laerm;55108;51.790;10.960;2023-02-28T00:51:55;27.65;25.90;30.77;;
68279;Laerm;55108;51.790;10.960;2023-02-28T00:54:21;28.33;26.25;34.41;;
68279;Laerm;55108;51.790;10.960;2023-02-28T00:56:47;28.60;25.98;36.66;;
68279;Laerm;55108;51.790;10.960;2023-02-28T00:59:13;29.56;26.12;34.72;;
68279;Laerm;55108;51.790;10.960;2023-02-28T01:01:38;28.79;26.00;36.91;;
68279;Laerm;55108;51.790;10.960;2023-02-28T01:04:03;60.93;25.79;79.60;;
68279;Laerm;55108;51.790;10.960;2023-02-28T01:06:29;35.72;26.11;47.43;;
68279;Laerm;55108;51.790;10.960;2023-02-28T01:08:54;32.93;25.95;46.85;;
68279;Laerm;55108;51.790;10.960;2023-02-28T01:11:19;33.33;26.93;40.26;;
68279;Laerm;55108;51.790;10.960;2023-02-28T01:13:45;28.95;26.48;38.04;;
68279;Laerm;55108;51.790;10.960;2023-02-28T01:16:11;29.58;26.02;37.24;;
68279;Laerm;55108;51.790;10.960;2023-02-28T01:18:36;33.38;26.05;43.70;;
68279;Laerm;55108;51.790;10.960;2023-02-28T01:21:05;31.31;26.41;40.84;;
68279;Laerm;55108;51.790;10.960;2023-02-28T01:23:31;31.88;27.45;44.71;;
68279;Laerm;55108;51.790;10.960;2023-02-28T01:25:56;43.95;27.65;59.10;;
68279;Laerm;55108;51.790;10.960;2023-02-28T01:28:21;52.35;26.70;71.40;;
68279;Laerm;55108;51.790;10.960;2023-02-28T01:30:49;33.44;27.10;47.63;;
68279;Laerm;55108;51.790;10.960;2023-02-28T01:33:15;36.14;25.75;67.83;;
68279;Laerm;55108;51.790;10.960;2023-02-28T01:35:40;28.30;25.93;35.67;;
68279;Laerm;55108;51.790;10.960;2023-02-28T01:38:05;29.15;26.30;35.72;;
68279;Laerm;55108;51.790;10.960;2023-02-28T01:40:30;31.91;26.18;42.86;;
68279;Laerm;55108;51.790;10.960;2023-02-28T01:42:55;60.43;26.55;80.01;;
68279;Laerm;55108;51.790;10.960;2023-02-28T01:45:25;30.78;26.96;37.51;;
68279;Laerm;55108;51.790;10.960;2023-02-28T01:47:51;34.05;26.30;53.08;;
68279;Laerm;55108;51.790;10.960;2023-02-28T01:50:18;52.35;26.73;70.49;;
68279;Laerm;55108;51.790;10.960;2023-02-28T01:52:44;30.08;26.95;54.13;;
68279;Laerm;55108;51.790;10.960;2023-02-28T01:55:10;27.60;25.82;31.66;;
68279;Laerm;55108;51.790;10.960;2023-02-28T01:57:38;27.31;25.76;31.82;;
68279;Laerm;55108;51.790;10.960;2023-02-28T02:00:05;54.55;26.08;71.92;;
68279;Laerm;55108;51.790;10.960;2023-02-28T02:02:32;34.57;26.24;51.10;;
68279;Laerm;55108;51.790;10.960;2023-02-28T02:05:03;59.22;26.42;78.08;;
68279;Laerm;55108;51.790;10.960;2023-02-28T02:07:29;29.34;25.96;40.80;;
68279;Laerm;55108;51.790;10.960;2023-02-28T02:10:01;28.61;25.80;36.76;;
68279;Laerm;55108;51.790;10.960;2023-02-28T02:15:04;58.78;26.89;75.76;;
68279;Laerm;55108;51.790;10.960;2023-02-28T02:17:37;28.96;26.70;33.40;;
68279;Laerm;55108;51.790;10.960;2023-02-28T02:22:59;40.72;27.11;57.43;;
68279;Laerm;55108;51.790;10.960;2023-02-28T02:40:43;64.85;29.36;85.22;;
68279;Laerm;55108;51.790;10.960;2023-02-28T02:43:16;32.90;28.63;41.82;;
68279;Laerm;55108;51.790;10.960;2023-02-28T02:45:48;37.76;26.87;50.53;;
68279;Laerm;55108;51.790;10.960;2023-02-28T02:48:16;31.68;27.34;45.39;;
68279;Laerm;55108;51.790;10.960;2023-02-28T02:50:44;31.73;27.44;38.17;;
68279;Laerm;55108;51.790;10.960;2023-02-28T02:53:10;29.60;27.07;33.51;;
68279;Laerm;55108;51.790;10.960;2023-02-28T02:55:38;64.18;28.92;83.33;;
68279;Laerm;55108;51.790;10.960;2023-02-28T02:58:07;60.75;28.09;79.07;;
68279;Laerm;55108;51.790;10.960;2023-02-28T03:00:34;40.05;27.06;53.66;;
68279;Laerm;55108;51.790;10.960;2023-02-28T03:03:01;57.95;27.82;75.75;;
68279;Laerm;55108;51.790;10.960;2023-02-28T03:05:29;60.54;31.79;77.89;;
68279;Laerm;55108;51.790;10.960;2023-02-28T03:07:58;57.18;29.85;76.60;;
68279;Laerm;55108;51.790;10.960;2023-02-28T03:10:31;40.92;28.03;54.88;;
68279;Laerm;55108;51.790;10.960;2023-02-28T03:13:00;56.35;27.82;74.22;;
68279;Laerm;55108;51.790;10.960;2023-02-28T03:21:06;37.91;28.44;51.04;;
68279;Laerm;55108;51.790;10.960;2023-02-28T03:23:45;57.84;29.18;73.27;;
68279;Laerm;55108;51.790;10.960;2023-02-28T03:26:20;56.40;28.97;77.02;;
68279;Laerm;55108;51.790;10.960;2023-02-28T03:29:03;33.57;28.42;45.71;;
68279;Laerm;55108;51.790;10.960;2023-02-28T03:31:32;60.98;30.21;78.42;;
68279;Laerm;55108;51.790;10.960;2023-02-28T03:33:59;35.62;29.71;46.19;;
68279;Laerm;55108;51.790;10.960;2023-02-28T03:36:27;33.61;29.19;42.74;;
68279;Laerm;55108;51.790;10.960;2023-02-28T03:39:01;34.66;29.97;47.46;;
68279;Laerm;55108;51.790;10.960;2023-02-28T03:41:42;60.66;30.55;77.48;;
68279;Laerm;55108;51.790;10.960;2023-02-28T03:44:21;56.87;31.56;75.84;;
68279;Laerm;55108;51.790;10.960;2023-02-28T03:46:56;57.16;30.53;75.04;;
68279;Laerm;55108;51.790;10.960;2023-02-28T03:49:24;32.83;28.64;39.96;;
68279;Laerm;55108;51.790;10.960;2023-02-28T03:51:51;59.22;30.15;74.92;;
68279;Laerm;55108;51.790;10.960;2023-02-28T03:54:20;36.53;29.91;45.86;;
68279;Laerm;55108;51.790;10.960;2023-02-28T03:56:55;59.46;33.72;75.55;;
68279;Laerm;55108;51.790;10.960;2023-02-28T03:59:33;61.18;32.66;77.06;;
68279;Laerm;55108;51.790;10.960;2023-02-28T04:02:01;56.36;31.64;71.20;;
68279;Laerm;55108;51.790;10.960;2023-02-28T04:04:26;59.76;32.69;77.00;;
68279;Laerm;55108;51.790;10.960;2023-02-28T04:06:51;58.66;31.48;76.09;;
68279;Laerm;55108;51.790;10.960;2023-02-28T04:09:17;58.02;30.11;74.08;;
68279;Laerm;55108;51.790;10.960;2023-02-28T04:11:44;45.12;35.82;59.21;;
68279;Laerm;55108;51.790;10.960;2023-02-28T04:14:10;61.14;36.91;77.42;;
68279;Laerm;55108;51.790;10.960;2023-02-28T04:16:36;63.09;38.36;82.96;;
68279;Laerm;55108;51.790;10.960;2023-02-28T04:19:02;62.18;35.80;76.02;;
68279;Laerm;55108;51.790;10.960;2023-02-28T04:21:30;52.52;32.98;71.00;;
68279;Laerm;55108;51.790;10.960;2023-02-28T04:23:55;66.07;35.40;80.16;;
68279;Laerm;55108;51.790;10.960;2023-02-28T04:26:20;62.38;35.58;76.76;;
68279;Laerm;55108;51.790;10.960;2023-02-28T04:28:45;65.19;36.12;82.37;;
68279;Laerm;55108;51.790;10.960;2023-02-28T04:31:11;61.29;33.36;77.20;;
68279;Laerm;55108;51.790;10.960;2023-02-28T04:33:36;63.62;37.69;76.33;;
68279;Laerm;55108;51.790;10.960;2023-02-28T04:36:02;58.58;37.58;75.23;;
68279;Laerm;55108;51.790;10.960;2023-02-28T04:38:28;67.89;37.02;80.95;;
68279;Laerm;55108;51.790;10.960;2023-02-28T04:40:56;66.88;36.82;81.31;;
68279;Laerm;55108;51.790;10.960;2023-02-28T04:43:21;64.61;36.59;76.37;;
68279;Laerm;55108;51.790;10.960;2023-02-28T04:45:46;61.80;34.45;75.99;;
68279;Laerm;55108;51.790;10.960;2023-02-28T04:48:11;61.75;34.70;76.35;;
68279;Laerm;55108;51.790;10.960;2023-02-28T04:50:36;61.74;35.99;77.41;;
68279;Laerm;55108;51.790;10.960;2023-02-28T04:53:01;65.65;41.44;81.09;;
68279;Laerm;55108;51.790;10.960;2023-02-28T04:55:27;66.99;34.87;81.51;;
68279;Laerm;55108;51.790;10.960;2023-02-28T04:57:52;64.90;35.81;77.00;;
68279;Laerm;55108;51.790;10.960;2023-02-28T05:00:17;66.85;38.34;84.65;;
68279;Laerm;55108;51.790;10.960;2023-02-28T05:02:42;66.43;37.34;81.70;;
68279;Laerm;55108;51.790;10.960;2023-02-28T05:05:07;65.68;38.20;79.62;;
68279;Laerm;55108;51.790;10.960;2023-02-28T05:07:33;67.85;36.71;85.09;;
68279;Laerm;55108;51.790;10.960;2023-02-28T05:09:58;62.27;37.90;73.67;;
68279;Laerm;55108;51.790;10.960;2023-02-28T05:12:23;66.19;40.96;80.19;;
68279;Laerm;55108;51.790;10.960;2023-02-28T05:14:48;63.29;38.57;77.79;;
68279;Laerm;55108;51.790;10.960;2023-02-28T05:17:13;65.03;39.48;78.43;;
68279;Laerm;55108;51.790;10.960;2023-02-28T05:19:38;60.75;36.50;75.47;;
68279;Laerm;55108;51.790;10.960;2023-02-28T05:22:03;66.43;41.77;78.52;;
68279;Laerm;55108;51.790;10.960;2023-02-28T05:24:28;65.17;40.64;77.45;;
68279;Laerm;55108;51.790;10.960;2023-02-28T05:26:54;67.02;42.22;78.46;;
68279;Laerm;55108;51.790;10.960;2023-02-28T05:29:19;66.66;41.95;79.48;;
68279;Laerm;55108;51.790;10.960;2023-02-28T05:31:44;65.35;41.65;77.67;;
68279;Laerm;55108;51.790;10.960;2023-02-28T05:34:10;65.67;40.46;78.06;;
68279;Laerm;55108;51.790;10.960;2023-02-28T05:36:37;66.47;45.44;77.66;;
68279;Laerm;55108;51.790;10.960;2023-02-28T05:39:02;65.25;37.51;77.80;;
68279;Laerm;55108;51.790;10.960;2023-02-28T05:41:28;66.79;42.88;80.27;;
68279;Laerm;55108;51.790;10.960;2023-02-28T05:43:53;69.28;46.60;81.40;;
68279;Laerm;55108;51.790;10.960;2023-02-28T05:46:18;64.03;44.77;77.26;;
68279;Laerm;55108;51.790;10.960;2023-02-28T05:48:45;65.50;43.86;79.53;;
68279;Laerm;55108;51.790;10.960;2023-02-28T05:51:10;68.39;48.56;81.13;;
68279;Laerm;55108;51.790;10.960;2023-02-28T05:53:36;66.79;45.96;78.40;;
68279;Laerm;55108;51.790;10.960;2023-02-28T05:56:01;67.81;41.10;82.60;;
68279;Laerm;55108;51.790;10.960;2023-02-28T05:58:26;65.81;41.55;79.92;;
68279;Laerm;55108;51.790;10.960;2023-02-28T06:00:55;70.41;52.03;85.29;;
68279;Laerm;55108;51.790;10.960;2023-02-28T06:03:20;65.39;46.93;87.82;;
68279;Laerm;55108;51.790;10.960;2023-02-28T06:05:45;67.05;39.90;82.87;;
68279;Laerm;55108;51.790;10.960;2023-02-28T06:08:10;68.48;45.04;82.54;;
68279;Laerm;55108;51.790;10.960;2023-02-28T06:10:36;70.26;46.68;82.10;;
68279;Laerm;55108;51.790;10.960;2023-02-28T06:13:01;68.45;42.59;82.80;;
68279;Laerm;55108;51.790;10.960;2023-02-28T06:15:27;69.12;44.68;83.39;;
68279;Laerm;55108;51.790;10.960;2023-02-28T06:17:53;70.40;43.29;86.11;;
68279;Laerm;55108;51.790;10.960;2023-02-28T06:20:18;65.72;41.14;77.76;;
68279;Laerm;55108;51.790;10.960;2023-02-28T06:22:43;68.47;46.59;80.16;;
68279;Laerm;55108;51.790;10.960;2023-02-28T06:25:09;69.67;46.78;84.39;;
68279;Laerm;55108;51.790;10.960;2023-02-28T06:27:34;68.90;55.49;82.16;;
68279;Laerm;55108;51.790;10.960;2023-02-28T06:29:59;67.88;45.84;79.57;;
68279;Laerm;55108;51.790;10.960;2023-02-28T06:32:24;65.42;47.18;78.40;;
68279;Laerm;55108;51.790;10.960;2023-02-28T06:34:49;68.78;49.22;78.58;;
68279;Laerm;55108;51.790;10.960;2023-02-28T06:37:15;68.17;47.43;81.92;;
68279;Laerm;55108;51.790;10.960;2023-02-28T06:39:40;67.60;49.12;80.14;;
68279;Laerm;55108;51.790;10.960;2023-02-28T06:42:05;68.14;49.91;80.04;;
68279;Laerm;55108;51.790;10.960;2023-02-28T06:44:31;66.06;45.28;76.31;;
68279;Laerm;55108;51.790;10.960;2023-02-28T06:47:00;68.70;42.61;81.93;;
68279;Laerm;55108;51.790;10.960;2023-02-28T06:49:26;65.99;55.31;74.90;;
68279;Laerm;55108;51.790;10.960;2023-02-28T06:51:52;66.41;46.06;76.71;;
68279;Laerm;55108;51.790;10.960;2023-02-28T06:54:17;67.18;48.29;76.65;;
68279;Laerm;55108;51.790;10.960;2023-02-28T06:56:42;67.82;48.98;81.35;;
68279;Laerm;55108;51.790;10.960;2023-02-28T06:59:07;69.53;46.05;81.47;;
68279;Laerm;55108;51.790;10.960;2023-02-28T07:01:32;68.23;48.80;81.61;;
68279;Laerm;55108;51.790;10.960;2023-02-28T07:03:58;67.72;45.78;78.35;;
68279;Laerm;55108;51.790;10.960;2023-02-28T07:06:24;66.69;45.41;78.36;;
68279;Laerm;55108;51.790;10.960;2023-02-28T07:08:50;67.20;45.04;81.21;;
68279;Laerm;55108;51.790;10.960;2023-02-28T07:11:16;68.39;46.38;82.14;;
68279;Laerm;55108;51.790;10.960;2023-02-28T07:13:42;67.60;39.64;79.26;;
68279;Laerm;55108;51.790;10.960;2023-02-28T07:16:08;63.66;38.71;75.76;;
68279;Laerm;55108;51.790;10.960;2023-02-28T07:18:34;64.22;41.50;78.17;;
68279;Laerm;55108;51.790;10.960;2023-02-28T07:21:03;69.59;48.07;83.65;;
68279;Laerm;55108;51.790;10.960;2023-02-28T07:23:29;64.63;39.30;79.38;;
68279;Laerm;55108;51.790;10.960;2023-02-28T07:25:54;67.43;40.24;79.54;;
68279;Laerm;55108;51.790;10.960;2023-02-28T07:28:19;70.11;52.07;82.91;;
68279;Laerm;55108;51.790;10.960;2023-02-28T07:30:44;63.42;37.64;75.40;;
68279;Laerm;55108;51.790;10.960;2023-02-28T07:33:10;67.54;40.17;84.04;;
68279;Laerm;55108;51.790;10.960;2023-02-28T07:35:35;68.81;38.16;77.97;;
68279;Laerm;55108;51.790;10.960;2023-02-28T07:38:00;66.74;37.99;78.42;;
68279;Laerm;55108;51.790;10.960;2023-02-28T07:40:25;66.90;47.79;79.71;;
68279;Laerm;55108;51.790;10.960;2023-02-28T07:42:51;67.56;45.05;78.21;;
68279;Laerm;55108;51.790;10.960;2023-02-28T07:45:16;67.10;43.64;79.70;;
68279;Laerm;55108;51.790;10.960;2023-02-28T07:47:42;65.29;42.04;77.39;;
68279;Laerm;55108;51.790;10.960;2023-02-28T07:50:08;68.73;47.80;79.81;;
68279;Laerm;55108;51.790;10.960;2023-02-28T07:52:34;68.12;48.48;82.78;;
68279;Laerm;55108;51.790;10.960;2023-02-28T07:55:00;68.61;42.18;84.79;;
68279;Laerm;55108;51.790;10.960;2023-02-28T07:57:25;69.29;42.89;81.23;;
68279;Laerm;55108;51.790;10.960;2023-02-28T07:59:51;66.80;38.38;80.02;;
68279;Laerm;55108;51.790;10.960;2023-02-28T08:02:17;67.48;45.27;77.51;;
68279;Laerm;55108;51.790;10.960;2023-02-28T08:04:42;69.80;42.26;82.67;;
68279;Laerm;55108;51.790;10.960;2023-02-28T08:07:07;67.57;48.07;76.49;;
68279;Laerm;55108;51.790;10.960;2023-02-28T08:09:33;67.20;42.68;78.23;;
68279;Laerm;55108;51.790;10.960;2023-02-28T08:11:58;69.19;46.41;84.00;;
68279;Laerm;55108;51.790;10.960;2023-02-28T08:14:24;64.72;35.88;76.28;;
68279;Laerm;55108;51.790;10.960;2023-02-28T08:16:49;67.11;41.09;78.74;;
68279;Laerm;55108;51.790;10.960;2023-02-28T08:19:14;64.97;38.22;75.79;;
68279;Laerm;55108;51.790;10.960;2023-02-28T08:21:39;66.75;36.37;82.07;;
68279;Laerm;55108;51.790;10.960;2023-02-28T08:24:05;68.96;46.57;80.35;;
68279;Laerm;55108;51.790;10.960;2023-02-28T08:26:30;69.39;51.14;80.78;;
68279;Laerm;55108;51.790;10.960;2023-02-28T08:28:55;68.90;45.09;81.50;;
68279;Laerm;55108;51.790;10.960;2023-02-28T08:31:20;67.14;42.95;79.15;;
68279;Laerm;55108;51.790;10.960;2023-02-28T08:33:45;69.77;49.74;81.23;;
68279;Laerm;55108;51.790;10.960;2023-02-28T08:36:13;70.87;48.20;80.56;;
68279;Laerm;55108;51.790;10.960;2023-02-28T08:38:38;67.74;46.37;81.17;;
68279;Laerm;55108;51.790;10.960;2023-02-28T08:41:05;70.27;58.69;79.99;;
68279;Laerm;55108;51.790;10.960;2023-02-28T08:43:32;70.52;48.64;87.71;;
68279;Laerm;55108;51.790;10.960;2023-02-28T08:45:57;69.80;47.34;84.99;;
68279;Laerm;55108;51.790;10.960;2023-02-28T08:48:22;68.98;49.85;80.90;;
68279;Laerm;55108;51.790;10.960;2023-02-28T08:51:21;69.87;44.30;85.03;;
68279;Laerm;55108;51.790;10.960;2023-02-28T08:53:41;68.29;46.47;79.76;;
68279;Laerm;55108;51.790;10.960;2023-02-28T08:56:07;70.30;53.70;82.65;;
68279;Laerm;55108;51.790;10.960;2023-02-28T08:58:32;67.80;41.12;81.81;;
68279;Laerm;55108;51.790;10.960;2023-02-28T09:00:59;68.51;53.92;81.50;;
68279;Laerm;55108;51.790;10.960;2023-02-28T09:03:24;66.01;46.94;79.41;;
68279;Laerm;55108;51.790;10.960;2023-02-28T09:05:55;67.97;44.88;81.88;;
68279;Laerm;55108;51.790;10.960;2023-02-28T09:08:21;68.57;47.04;84.25;;
68279;Laerm;55108;51.790;10.960;2023-02-28T09:10:46;67.80;47.37;78.02;;
68279;Laerm;55108;51.790;10.960;2023-02-28T09:13:12;68.57;49.13;78.91;;
68279;Laerm;55108;51.790;10.960;2023-02-28T09:15:37;67.91;48.71;79.30;;
68279;Laerm;55108;51.790;10.960;2023-02-28T09:18:02;70.27;45.29;82.98;;
68279;Laerm;55108;51.790;10.960;2023-02-28T09:20:28;66.96;41.13;80.58;;
68279;Laerm;55108;51.790;10.960;2023-02-28T09:22:53;66.65;48.16;81.07;;
68279;Laerm;55108;51.790;10.960;2023-02-28T09:25:18;67.08;50.90;76.78;;
68279;Laerm;55108;51.790;10.960;2023-02-28T09:27:43;67.40;51.40;78.51;;
68279;Laerm;55108;51.790;10.960;2023-02-28T09:30:10;71.88;52.86;89.96;;
68279;Laerm;55108;51.790;10.960;2023-02-28T09:32:35;68.07;46.75;81.53;;
68279;Laerm;55108;51.790;10.960;2023-02-28T09:35:00;66.35;43.82;75.97;;
68279;Laerm;55108;51.790;10.960;2023-02-28T09:37:26;67.70;47.55;80.61;;
68279;Laerm;55108;51.790;10.960;2023-02-28T09:39:54;66.78;49.06;80.01;;
68279;Laerm;55108;51.790;10.960;2023-02-28T09:42:21;68.49;44.55;81.93;;
68279;Laerm;55108;51.790;10.960;2023-02-28T09:44:48;68.42;48.00;79.83;;
68279;Laerm;55108;51.790;10.960;2023-02-28T09:49:41;67.43;41.86;80.84;;
68279;Laerm;55108;51.790;10.960;2023-02-28T09:52:10;64.51;42.47;76.58;;
68279;Laerm;55108;51.790;10.960;2023-02-28T09:54:37;68.64;47.59;79.85;;
68279;Laerm;55108;51.790;10.960;2023-02-28T09:57:37;68.38;47.44;81.83;;
68279;Laerm;55108;51.790;10.960;2023-02-28T10:00:03;69.13;49.37;82.97;;
68279;Laerm;55108;51.790;10.960;2023-02-28T10:02:46;68.01;43.58;77.81;;
68279;Laerm;55108;51.790;10.960;2023-02-28T10:05:22;66.49;40.83;82.37;;
68279;Laerm;55108;51.790;10.960;2023-02-28T10:08:02;68.30;47.45;78.38;;
68279;Laerm;55108;51.790;10.960;2023-02-28T10:12:55;70.43;46.59;88.57;;
68279;Laerm;55108;51.790;10.960;2023-02-28T10:15:23;66.87;46.67;78.49;;
68279;Laerm;55108;51.790;10.960;2023-02-28T10:17:51;64.97;45.39;76.91;;
68279;Laerm;55108;51.790;10.960;2023-02-28T10:20:19;67.95;45.35;80.71;;
68279;Laerm;55108;51.790;10.960;2023-02-28T10:22:58;69.08;49.17;78.85;;
68279;Laerm;55108;51.790;10.960;2023-02-28T10:25:28;69.80;46.23;86.21;;
68279;Laerm;55108;51.790;10.960;2023-02-28T10:28:01;68.35;48.96;82.73;;
68279;Laerm;55108;51.790;10.960;2023-02-28T10:30:30;67.01;47.38;79.15;;
68279;Laerm;55108;51.790;10.960;2023-02-28T10:32:56;69.64;48.41;89.63;;
68279;Laerm;55108;51.790;10.960;2023-02-28T10:35:22;68.57;48.82;86.33;;
68279;Laerm;55108;51.790;10.960;2023-02-28T10:37:49;66.90;44.41;81.48;;
68279;Laerm;55108;51.790;10.960;2023-02-28T10:45:25;69.02;41.86;97.27;;
68279;Laerm;55108;51.790;10.960;2023-02-28T10:47:55;66.63;42.61;80.78;;
68279;Laerm;55108;51.790;10.960;2023-02-28T10:50:39;67.86;48.51;78.82;;
68279;Laerm;55108;51.790;10.960;2023-02-28T10:55:40;66.13;47.79;77.90;;
68279;Laerm;55108;51.790;10.960;2023-02-28T10:58:22;66.52;45.67;76.35;;
68279;Laerm;55108;51.790;10.960;2023-02-28T11:00:48;67.41;44.28;77.92;;
68279;Laerm;55108;51.790;10.960;2023-02-28T11:05:50;67.50;46.51;81.14;;
68279;Laerm;55108;51.790;10.960;2023-02-28T11:08:16;67.27;46.82;78.52;;
68279;Laerm;55108;51.790;10.960;2023-02-28T11:10:45;64.58;42.18;77.76;;
68279;Laerm;55108;51.790;10.960;2023-02-28T11:13:17;68.36;45.34;80.02;;
68279;Laerm;55108;51.790;10.960;2023-02-28T11:15:48;66.06;47.69;77.99;;
68279;Laerm;55108;51.790;10.960;2023-02-28T11:18:20;67.28;43.80;78.44;;
68279;Laerm;55108;51.790;10.960;2023-02-28T11:20:52;68.10;46.68;80.09;;
68279;Laerm;55108;51.790;10.960;2023-02-28T11:23:19;67.61;41.65;79.95;;
68279;Laerm;55108;51.790;10.960;2023-02-28T11:25:49;68.55;45.77;82.13;;
68279;Laerm;55108;51.790;10.960;2023-02-28T11:28:34;67.98;45.64;81.22;;
68279;Laerm;55108;51.790;10.960;2023-02-28T11:35:53;66.46;45.87;78.91;;
68279;Laerm;55108;51.790;10.960;2023-02-28T11:38:20;66.66;38.83;82.19;;
68279;Laerm;55108;51.790;10.960;2023-02-28T11:41:00;66.84;46.92;78.54;;
68279;Laerm;55108;51.790;10.960;2023-02-28T11:46:18;67.02;41.22;80.21;;
68279;Laerm;55108;51.790;10.960;2023-02-28T11:49:02;67.96;45.03;81.91;;
68279;Laerm;55108;51.790;10.960;2023-02-28T11:51:35;67.92;49.04;86.20;;
68279;Laerm;55108;51.790;10.960;2023-02-28T11:54:07;69.86;44.73;89.35;;
68279;Laerm;55108;51.790;10.960;2023-02-28T11:56:41;68.69;46.16;80.92;;
68279;Laerm;55108;51.790;10.960;2023-02-28T12:02:00;66.36;44.44;79.85;;
68279;Laerm;55108;51.790;10.960;2023-02-28T12:07:03;65.07;41.35;80.49;;
68279;Laerm;55108;51.790;10.960;2023-02-28T12:14:37;68.04;46.23;82.68;;
68279;Laerm;55108;51.790;10.960;2023-02-28T12:19:45;69.15;48.13;82.56;;
68279;Laerm;55108;51.790;10.960;2023-02-28T12:22:30;66.88;41.86;78.76;;
68279;Laerm;55108;51.790;10.960;2023-02-28T12:27:31;66.00;37.72;77.70;;
68279;Laerm;55108;51.790;10.960;2023-02-28T12:32:27;66.77;43.27;74.85;;
68279;Laerm;55108;51.790;10.960;2023-02-28T12:34:57;68.50;48.52;84.13;;
68279;Laerm;55108;51.790;10.960;2023-02-28T12:37:34;67.95;44.29;79.06;;
68279;Laerm;55108;51.790;10.960;2023-02-28T12:40:05;68.23;41.59;79.85;;
68279;Laerm;55108;51.790;10.960;2023-02-28T12:42:32;74.58;50.15;93.66;;
68279;Laerm;55108;51.790;10.960;2023-02-28T12:45:01;68.70;45.58;82.59;;
68279;Laerm;55108;51.790;10.960;2023-02-28T12:47:27;68.46;47.48;86.31;;
68279;Laerm;55108;51.790;10.960;2023-02-28T12:50:04;68.00;47.99;78.02;;
68279;Laerm;55108;51.790;10.960;2023-02-28T12:55:03;69.50;43.86;83.64;;
68279;Laerm;55108;51.790;10.960;2023-02-28T12:57:39;67.51;47.63;77.90;;
68279;Laerm;55108;51.790;10.960;2023-02-28T13:00:11;66.29;43.02;81.51;;
68279;Laerm;55108;51.790;10.960;2023-02-28T13:10:08;66.29;42.63;76.40;;
68279;Laerm;55108;51.790;10.960;2023-02-28T13:12:34;67.66;43.12;81.46;;
68279;Laerm;55108;51.790;10.960;2023-02-28T13:17:55;68.62;45.69;79.81;;
68279;Laerm;55108;51.790;10.960;2023-02-28T13:20:21;65.75;49.05;77.33;;
68279;Laerm;55108;51.790;10.960;2023-02-28T13:22:49;66.26;41.86;76.35;;
68279;Laerm;55108;51.790;10.960;2023-02-28T13:27:57;67.35;49.07;78.74;;
68279;Laerm;55108;51.790;10.960;2023-02-28T13:33:28;68.73;48.50;77.94;;
68279;Laerm;55108;51.790;10.960;2023-02-28T13:36:08;65.80;43.44;78.54;;
68279;Laerm;55108;51.790;10.960;2023-02-28T13:51:53;68.64;45.38;82.85;;
68279;Laerm;55108;51.790;10.960;2023-02-28T13:57:03;69.28;50.86;80.83;;
68279;Laerm;55108;51.790;10.960;2023-02-28T14:07:23;68.42;53.60;77.81;;
68279;Laerm;55108;51.790;10.960;2023-02-28T14:09:53;69.16;46.35;87.73;;
68279;Laerm;55108;51.790;10.960;2023-02-28T14:15:04;67.26;47.97;76.17;;
68279;Laerm;55108;51.790;10.960;2023-02-28T14:17:51;71.04;41.24;90.00;;
68279;Laerm;55108;51.790;10.960;2023-02-28T14:20:16;68.23;50.32;77.12;;
68279;Laerm;55108;51.790;10.960;2023-02-28T14:22:45;70.05;42.64;85.23;;
68279;Laerm;55108;51.790;10.960;2023-02-28T14:25:31;69.67;49.67;79.60;;
68279;Laerm;55108;51.790;10.960;2023-02-28T14:28:03;69.21;42.11;82.71;;
68279;Laerm;55108;51.790;10.960;2023-02-28T14:30:37;67.74;47.40;82.08;;
68279;Laerm;55108;51.790;10.960;2023-02-28T14:33:11;66.24;45.21;78.07;;
68279;Laerm;55108;51.790;10.960;2023-02-28T14:35:49;68.54;47.96;81.34;;
68279;Laerm;55108;51.790;10.960;2023-02-28T14:38:20;68.63;51.57;81.00;;
68279;Laerm;55108;51.790;10.960;2023-02-28T14:40:47;69.18;40.37;83.09;;
68279;Laerm;55108;51.790;10.960;2023-02-28T14:43:21;67.52;45.65;79.97;;
68279;Laerm;55108;51.790;10.960;2023-02-28T14:45:50;68.45;50.22;80.09;;
68279;Laerm;55108;51.790;10.960;2023-02-28T14:48:16;71.22;55.06;81.04;;
68279;Laerm;55108;51.790;10.960;2023-02-28T14:50:42;68.36;48.17;77.71;;
68279;Laerm;55108;51.790;10.960;2023-02-28T14:53:15;68.25;47.24;78.80;;
68279;Laerm;55108;51.790;10.960;2023-02-28T14:55:44;66.40;45.92;78.79;;
68279;Laerm;55108;51.790;10.960;2023-02-28T14:58:19;66.24;42.51;80.36;;
68279;Laerm;55108;51.790;10.960;2023-02-28T15:00:47;71.56;51.85;87.08;;
68279;Laerm;55108;51.790;10.960;2023-02-28T15:03:20;67.70;51.66;77.64;;
68279;Laerm;55108;51.790;10.960;2023-02-28T15:05:56;68.98;47.21;77.56;;
68279;Laerm;55108;51.790;10.960;2023-02-28T15:08:22;68.13;44.03;84.92;;
68279;Laerm;55108;51.790;10.960;2023-02-28T15:10:51;69.24;48.36;79.45;;
68279;Laerm;55108;51.790;10.960;2023-02-28T15:13:18;66.66;47.61;79.42;;
68279;Laerm;55108;51.790;10.960;2023-02-28T15:18:14;69.35;54.12;80.43;;
68279;Laerm;55108;51.790;10.960;2023-02-28T15:20:40;68.42;47.44;79.66;;
68279;Laerm;55108;51.790;10.960;2023-02-28T15:23:06;68.79;52.18;78.13;;
68279;Laerm;55108;51.790;10.960;2023-02-28T15:25:32;68.08;48.83;83.24;;
68279;Laerm;55108;51.790;10.960;2023-02-28T15:27:57;68.90;44.96;81.42;;
68279;Laerm;55108;51.790;10.960;2023-02-28T15:30:24;67.18;45.37;78.74;;